createdAt,value
2023-04-15T00:04:53.284Z,11.12
2023-04-15T00:09:59.006Z,11.09
2023-04-15T00:15:06.335Z,11.08
2023-04-15T00:20:14.081Z,11.10
2023-04-15T00:25:19.740Z,11.10
2023-04-15T00:30:26.114Z,11.11
2023-04-15T00:35:32.784Z,11.13
2023-04-15T00:40:39.427Z,11.10
2023-04-15T00:45:46.743Z,11.08
2023-04-15T00:50:52.679Z,11.09
2023-04-15T00:55:58.685Z,11.07
2023-04-15T01:01:05.424Z,11.07
2023-04-15T01:06:12.041Z,11.05
2023-04-15T01:11:18.985Z,11.04
2023-04-15T01:16:24.595Z,11.05
2023-04-15T01:21:30.319Z,11.04
2023-04-15T01:26:36.202Z,11.01
2023-04-15T01:31:41.874Z,10.97
2023-04-15T01:36:47.844Z,10.96
2023-04-15T01:41:53.732Z,10.95
2023-04-15T01:47:00.385Z,10.92
2023-04-15T01:52:06.513Z,10.91
2023-04-15T01:57:12.378Z,10.92
2023-04-15T02:02:18.097Z,10.90
2023-04-15T02:07:23.991Z,10.87
2023-04-15T02:12:30.139Z,10.90
2023-04-15T02:17:37.891Z,10.93
2023-04-15T02:22:43.766Z,10.93
2023-04-15T02:27:49.499Z,10.95
2023-04-15T02:32:55.634Z,10.94
2023-04-15T02:38:02.763Z,10.94
2023-04-15T02:43:08.465Z,10.94
2023-04-15T02:48:14.253Z,10.94
2023-04-15T02:53:20.476Z,10.95
2023-04-15T02:58:26.345Z,10.96
2023-04-15T03:03:32.360Z,10.94
2023-04-15T03:08:38.359Z,10.95
2023-04-15T03:13:43.995Z,10.96
2023-04-15T03:18:49.643Z,10.96
2023-04-15T03:23:55.894Z,10.95
2023-04-15T03:29:01.841Z,10.94
2023-04-15T03:34:07.794Z,10.95
2023-04-15T03:39:13.773Z,10.94
2023-04-15T03:44:19.914Z,10.95
2023-04-15T03:49:25.517Z,10.95
2023-04-15T03:54:31.230Z,10.93
2023-04-15T03:59:36.836Z,10.93
2023-04-15T04:04:43.388Z,10.94
2023-04-15T04:09:48.980Z,10.95
2023-04-15T04:14:55.121Z,10.95
2023-04-15T04:20:00.662Z,10.94
2023-04-15T04:25:08.618Z,10.95
2023-04-15T04:30:15.822Z,10.91
2023-04-15T04:35:22.317Z,10.90
2023-04-15T04:40:27.957Z,10.92
2023-04-15T04:45:33.680Z,10.97
2023-04-15T04:50:39.475Z,11.02
2023-04-15T04:55:45.240Z,11.06
2023-04-15T05:00:51.480Z,11.06
2023-04-15T05:05:57.050Z,11.08
2023-04-15T05:11:02.979Z,11.12
2023-04-15T05:16:09.520Z,11.17
2023-04-15T05:21:15.973Z,11.24
2023-04-15T05:26:22.081Z,11.26
2023-04-15T05:31:27.704Z,11.25
2023-04-15T05:36:33.428Z,11.22
2023-04-15T05:41:39.034Z,11.25
2023-04-15T05:46:44.807Z,11.27
2023-04-15T05:51:51.160Z,11.28
2023-04-15T05:56:57.948Z,11.29
2023-04-15T06:02:03.833Z,11.26
2023-04-15T06:07:09.407Z,11.25
2023-04-15T06:12:15.055Z,11.29
2023-04-15T06:17:20.779Z,11.32
2023-04-15T06:22:26.507Z,11.35
2023-04-15T06:27:32.116Z,11.44
2023-04-15T06:32:37.915Z,11.49
2023-04-15T06:37:43.698Z,11.49
2023-04-15T06:42:49.698Z,11.50
2023-04-15T06:47:55.325Z,11.57
2023-04-15T06:53:01.744Z,11.57
2023-04-15T06:58:07.571Z,11.58
2023-04-15T07:03:14.696Z,11.62
2023-04-15T07:08:23.752Z,11.74
2023-04-15T07:13:31.774Z,11.74
2023-04-15T07:18:37.468Z,11.72
2023-04-15T07:23:43.666Z,11.72
2023-04-15T07:28:49.634Z,11.75
2023-04-15T07:33:55.273Z,11.78
2023-04-15T07:39:03.257Z,11.76
2023-04-15T07:44:09.576Z,11.77
2023-04-15T07:49:15.336Z,11.80
2023-04-15T07:54:21.266Z,11.74
2023-04-15T07:59:29.712Z,11.69
2023-04-15T08:04:35.835Z,11.68
2023-04-15T08:09:41.866Z,11.70
2023-04-15T08:14:47.871Z,11.70
2023-04-15T08:19:53.740Z,11.71
2023-04-15T08:24:59.644Z,11.80
2023-04-15T08:30:07.335Z,11.85
2023-04-15T08:35:14.076Z,11.88
2023-04-15T08:40:20.377Z,11.95
2023-04-15T08:45:26.462Z,12.08
2023-04-15T08:50:33.604Z,12.13
2023-04-15T08:55:45.114Z,12.07
2023-04-15T09:00:50.747Z,11.97
2023-04-15T09:05:57.599Z,11.98
2023-04-15T09:11:04.057Z,12.04
2023-04-15T09:16:10.235Z,12.07
2023-04-15T09:21:17.788Z,12.12
2023-04-15T09:26:34.806Z,12.07
2023-04-15T09:31:41.244Z,12.16
2023-04-15T09:36:57.580Z,12.19
2023-04-15T09:42:10.605Z,12.18
2023-04-15T09:47:31.000Z,12.18
2023-04-15T09:52:43.283Z,12.09
2023-04-15T09:57:49.068Z,12.06
2023-04-15T10:02:55.156Z,12.06
2023-04-15T10:08:02.216Z,12.04
2023-04-15T10:13:09.102Z,12.08
2023-04-15T10:18:17.745Z,12.01
2023-04-15T10:23:25.334Z,11.95
2023-04-15T10:28:31.194Z,11.88
2023-04-15T10:33:38.743Z,11.89
2023-04-15T10:38:46.366Z,11.96
2023-04-15T10:43:55.541Z,11.99
2023-04-15T10:49:10.599Z,11.93
2023-04-15T10:54:31.426Z,11.87
2023-04-15T10:59:59.560Z,11.84
2023-04-15T11:05:06.953Z,11.84
2023-04-15T11:10:56.916Z,11.77
2023-04-15T11:16:04.134Z,11.72
2023-04-15T11:21:10.577Z,11.67
2023-04-15T11:26:16.801Z,11.65
2023-04-15T11:31:23.558Z,11.66
2023-04-15T11:36:31.641Z,11.68
2023-04-15T11:41:38.103Z,11.76
2023-04-15T11:46:45.517Z,11.80
2023-04-15T11:51:51.449Z,11.81
2023-04-15T11:56:57.100Z,11.87
2023-04-15T12:02:13.736Z,11.84
2023-04-15T12:07:19.784Z,11.77
2023-04-15T12:12:30.455Z,11.69
2023-04-15T12:17:51.519Z,11.68
2023-04-15T12:23:08.304Z,11.63
2023-04-15T12:28:14.892Z,11.51
2023-04-15T12:33:20.904Z,11.47
2023-04-15T12:38:26.850Z,11.41
2023-04-15T12:43:32.653Z,11.41
2023-04-15T12:48:38.537Z,11.42
2023-04-15T12:53:44.463Z,11.45
2023-04-15T12:58:50.184Z,11.38
2023-04-15T13:03:56.098Z,11.28
2023-04-15T13:09:04.529Z,11.19
2023-04-15T13:14:12.674Z,11.15
2023-04-15T13:19:18.565Z,11.12
2023-04-15T13:24:24.255Z,11.18
2023-04-15T13:29:30.089Z,11.26
2023-04-15T13:34:35.944Z,11.34
2023-04-15T13:39:41.743Z,11.52
2023-04-15T13:44:47.696Z,11.81
2023-04-15T13:49:56.016Z,11.98
2023-04-15T13:55:19.139Z,11.96
2023-04-15T14:00:26.309Z,11.75
2023-04-15T14:05:32.281Z,11.56
2023-04-15T14:10:38.248Z,11.37
2023-04-15T14:15:43.915Z,11.22
2023-04-15T14:20:49.633Z,11.17
2023-04-15T14:25:55.844Z,11.21
2023-04-15T14:31:01.606Z,11.24
2023-04-15T14:36:09.471Z,11.29
2023-04-15T14:41:15.679Z,11.29
2023-04-15T14:46:21.464Z,11.19
2023-04-15T14:51:27.032Z,11.10
2023-04-15T14:56:32.746Z,11.02
2023-04-15T15:01:38.422Z,11.02
2023-04-15T15:06:44.484Z,11.04
2023-04-15T15:11:50.859Z,11.05
2023-04-15T15:16:56.721Z,11.03
2023-04-15T15:22:03.153Z,10.94
2023-04-15T15:27:08.978Z,10.89
2023-04-15T15:32:14.872Z,10.80
2023-04-15T15:37:20.772Z,10.75
2023-04-15T15:42:26.669Z,10.68
2023-04-15T15:47:32.905Z,10.60
2023-04-15T15:52:39.103Z,10.63
2023-04-15T15:57:44.884Z,10.63
2023-04-15T16:03:06.137Z,10.59
2023-04-15T16:08:12.848Z,10.55
2023-04-15T16:13:18.688Z,10.48
2023-04-15T16:18:24.459Z,10.40
2023-04-15T16:23:31.253Z,10.32
2023-04-15T16:28:37.054Z,10.27
2023-04-15T16:33:42.865Z,10.27
2023-04-15T16:38:48.786Z,10.21
2023-04-15T16:43:55.290Z,10.16
2023-04-15T16:49:01.459Z,10.14
2023-04-15T16:54:07.469Z,10.10
2023-04-15T16:59:13.480Z,10.07
2023-04-15T17:04:19.340Z,10.01
2023-04-15T17:09:25.183Z,9.94
2023-04-15T17:14:31.664Z,9.91
2023-04-15T17:19:37.324Z,9.86
2023-04-15T17:24:43.314Z,9.79
2023-04-15T17:29:49.165Z,9.72
2023-04-15T17:34:55.044Z,9.70
2023-04-15T17:40:00.758Z,9.67
2023-04-15T17:45:09.075Z,9.61
2023-04-15T17:50:14.798Z,9.56
2023-04-15T17:55:21.763Z,9.47
2023-04-15T18:00:27.858Z,9.38
2023-04-15T18:05:33.611Z,9.39
2023-04-15T18:10:39.775Z,9.28
2023-04-15T18:15:47.402Z,9.23
2023-04-15T18:20:53.525Z,9.12
2023-04-15T18:25:59.959Z,9.03
2023-04-15T18:31:06.474Z,8.96
2023-04-15T18:36:12.571Z,8.95
2023-04-15T18:41:18.412Z,8.89
2023-04-15T18:46:24.106Z,8.84
2023-04-15T18:51:29.767Z,8.82
2023-04-15T18:56:35.635Z,8.76
2023-04-15T19:01:41.565Z,8.74
2023-04-15T19:06:48.121Z,8.68
2023-04-15T19:11:53.936Z,8.67
2023-04-15T19:16:59.860Z,8.64
2023-04-15T19:22:06.268Z,8.60
2023-04-15T19:27:11.977Z,8.60
2023-04-15T19:32:17.844Z,8.57
2023-04-15T19:37:23.631Z,8.52
2023-04-15T19:42:29.226Z,8.48
2023-04-15T19:47:36.769Z,8.46
2023-04-15T19:52:42.530Z,8.43
2023-04-15T19:57:48.258Z,8.44
2023-04-15T20:02:55.730Z,8.45
2023-04-15T20:08:03.125Z,8.43
2023-04-15T20:13:08.852Z,8.42
2023-04-15T20:18:14.593Z,8.42
2023-04-15T20:23:20.649Z,8.39
2023-04-15T20:28:27.355Z,8.36
2023-04-15T20:33:33.322Z,8.38
2023-04-15T20:38:39.488Z,8.42
2023-04-15T20:43:45.561Z,8.46
2023-04-15T20:48:51.492Z,8.46
2023-04-15T20:53:57.227Z,8.46
2023-04-15T20:59:03.353Z,8.46
2023-04-15T21:04:09.261Z,8.48
2023-04-15T21:09:15.240Z,8.49
2023-04-15T21:14:21.088Z,8.51
2023-04-15T21:19:26.969Z,8.53
2023-04-15T21:24:32.633Z,8.53
2023-04-15T21:29:39.946Z,8.49
2023-04-15T21:34:46.109Z,8.49
2023-04-15T21:39:51.859Z,8.50
2023-04-15T21:44:57.665Z,8.49
2023-04-15T21:50:03.475Z,8.53
2023-04-15T21:55:11.507Z,8.53
2023-04-15T22:00:18.238Z,8.52
2023-04-15T22:05:24.245Z,8.49
2023-04-15T22:10:30.187Z,8.46
2023-04-15T22:15:36.238Z,8.46
2023-04-15T22:20:41.902Z,8.41
2023-04-15T22:25:47.659Z,8.38
2023-04-15T22:30:54.213Z,8.38
2023-04-15T22:36:00.021Z,8.39
2023-04-15T22:41:05.821Z,8.38
2023-04-15T22:46:11.470Z,8.41
2023-04-15T22:51:24.143Z,8.39
2023-04-15T22:56:29.804Z,8.37
2023-04-15T23:01:37.729Z,8.34
2023-04-15T23:06:43.614Z,8.31
2023-04-15T23:11:49.565Z,8.30
2023-04-15T23:16:55.508Z,8.29
2023-04-15T23:22:01.194Z,8.27
2023-04-15T23:27:06.972Z,8.25
2023-04-15T23:32:12.621Z,8.25
2023-04-15T23:37:19.862Z,8.24
2023-04-15T23:42:25.662Z,8.25
2023-04-15T23:47:31.494Z,8.23
2023-04-15T23:52:37.712Z,8.20
2023-04-15T23:57:43.508Z,8.15
